LNI981 WAEE-WAAA
Flight info
| Callsign | LNI981 |
|---|---|
| Flight time | 1h 42m |
| Altitude | 36000 |
| Route | TELES W36 ENTEG W32 VENRU |
| Aircraft | B739/M-SDE2E3FGHIRWXY/LB1 |
Departure
| Time | 2026-04-22 12:41 |
|---|---|
| Airport | Sultan Babullah Airport (WAEE) |
Arrival
| Time | 2026-04-22 14:24 |
|---|---|
| Airport | Sultan Hasanuddin International Airport (WAAA) |
| Time | Latitude | Longitude | Altitude | Speed | Heading |
|---|---|---|---|---|---|
| 2026-04-22 11:42 | 0.83369 | 127.37738 | 79 ft | 0 kts | 231° |
| 2026-04-22 12:30 | 0.83376 | 127.37747 | 84 ft | 4 kts | 223° |
| 2026-04-22 12:30 | 0.83398 | 127.37760 | 89 ft | 4 kts | 182° |
| 2026-04-22 12:30 | 0.83423 | 127.37754 | 84 ft | 4 kts | 148° |
| 2026-04-22 12:31 | 0.83438 | 127.37744 | 84 ft | 0 kts | 142° |
| 2026-04-22 12:34 | 0.83437 | 127.37744 | 84 ft | 1 kts | 142° |
| 2026-04-22 12:34 | 0.83428 | 127.37751 | 88 ft | 2 kts | 142° |
| 2026-04-22 12:34 | 0.83413 | 127.37762 | 84 ft | 3 kts | 142° |
| 2026-04-22 12:35 | 0.83401 | 127.37778 | 89 ft | 3 kts | 119° |
| 2026-04-22 12:35 | 0.83399 | 127.37803 | 84 ft | 5 kts | 77° |
| 2026-04-22 12:35 | 0.83404 | 127.37813 | 84 ft | 0 kts | 62° |
| 2026-04-22 12:36 | 0.83405 | 127.37815 | 84 ft | 2 kts | 60° |
| 2026-04-22 12:36 | 0.83426 | 127.37842 | 86 ft | 8 kts | 51° |
| 2026-04-22 12:37 | 0.83439 | 127.37903 | 87 ft | 11 kts | 126° |
| 2026-04-22 12:37 | 0.83375 | 127.37956 | 85 ft | 13 kts | 142° |
| 2026-04-22 12:37 | 0.83291 | 127.38021 | 83 ft | 18 kts | 141° |
| 2026-04-22 12:37 | 0.83177 | 127.38112 | 84 ft | 24 kts | 141° |
| 2026-04-22 12:38 | 0.83045 | 127.38217 | 85 ft | 24 kts | 141° |
| 2026-04-22 12:38 | 0.82919 | 127.38318 | 71 ft | 23 kts | 141° |
| 2026-04-22 12:38 | 0.82798 | 127.38415 | 73 ft | 23 kts | 141° |
| 2026-04-22 12:38 | 0.82673 | 127.38515 | 74 ft | 23 kts | 141° |
| 2026-04-22 12:39 | 0.82551 | 127.38614 | 70 ft | 22 kts | 141° |
| 2026-04-22 12:39 | 0.82367 | 127.38784 | 72 ft | 7 kts | 180° |
| 2026-04-22 12:39 | 0.82362 | 127.38767 | 65 ft | 3 kts | 309° |
| 2026-04-22 12:40 | 0.82365 | 127.38764 | 74 ft | 0 kts | 318° |
| 2026-04-22 12:40 | 0.82425 | 127.38713 | 75 ft | 44 kts | 321° |
| 2026-04-22 12:41 | 0.82884 | 127.38345 | 78 ft | 122 kts | 321° |
| 2026-04-22 12:41 | 0.83717 | 127.37678 | 113 ft | 179 kts | 322° |
| 2026-04-22 12:41 | 0.84696 | 127.36925 | 935 ft | 171 kts | 324° |
| 2026-04-22 12:41 | 0.85829 | 127.36521 | 1497 ft | 188 kts | 1° |
| 2026-04-22 12:42 | 0.87201 | 127.36564 | 1917 ft | 209 kts | 0° |
| 2026-04-22 12:42 | 0.88744 | 127.36509 | 2152 ft | 233 kts | 356° |
| 2026-04-22 12:42 | 0.90400 | 127.36367 | 2605 ft | 243 kts | 355° |
| 2026-04-22 12:42 | 0.92100 | 127.36211 | 3288 ft | 247 kts | 356° |
| 2026-04-22 12:43 | 0.93810 | 127.36048 | 4120 ft | 246 kts | 357° |
| 2026-04-22 12:43 | 0.95531 | 127.35895 | 4844 ft | 251 kts | 356° |
| 2026-04-22 12:43 | 0.97282 | 127.35741 | 5589 ft | 253 kts | 356° |
| 2026-04-22 12:43 | 0.99004 | 127.35334 | 6255 ft | 260 kts | 331° |
| 2026-04-22 12:44 | 1.00301 | 127.34115 | 6890 ft | 265 kts | 300° |
| 2026-04-22 12:44 | 1.00800 | 127.32352 | 7535 ft | 268 kts | 272° |
| 2026-04-22 12:44 | 1.00803 | 127.30480 | 8180 ft | 272 kts | 269° |
| 2026-04-22 12:44 | 1.00765 | 127.28572 | 8847 ft | 276 kts | 269° |
| 2026-04-22 12:45 | 1.00691 | 127.26641 | 9535 ft | 279 kts | 261° |
| 2026-04-22 12:45 | 0.99931 | 127.24871 | 10111 ft | 282 kts | 227° |
| 2026-04-22 12:45 | 0.98315 | 127.23736 | 10420 ft | 295 kts | 199° |
| 2026-04-22 12:45 | 0.96302 | 127.23054 | 10610 ft | 317 kts | 197° |
| 2026-04-22 12:46 | 0.94857 | 127.22572 | 10716 ft | 331 kts | 197° |
| 2026-04-22 12:46 | 0.92607 | 127.21814 | 10894 ft | 350 kts | 197° |
| 2026-04-22 12:46 | 0.90307 | 127.21027 | 11322 ft | 358 kts | 198° |
| 2026-04-22 12:46 | 0.87947 | 127.20209 | 11915 ft | 361 kts | 198° |
| 2026-04-22 12:47 | 0.85573 | 127.19379 | 12529 ft | 363 kts | 198° |
| 2026-04-22 12:47 | 0.83179 | 127.18535 | 13102 ft | 367 kts | 198° |
| 2026-04-22 12:47 | 0.80763 | 127.17677 | 13661 ft | 370 kts | 198° |
| 2026-04-22 12:47 | 0.78318 | 127.16807 | 14162 ft | 374 kts | 198° |
| 2026-04-22 12:48 | 0.75858 | 127.15930 | 14664 ft | 377 kts | 198° |
| 2026-04-22 12:48 | 0.73376 | 127.15044 | 15166 ft | 380 kts | 198° |
| 2026-04-22 12:48 | 0.70875 | 127.14152 | 15658 ft | 384 kts | 198° |
| 2026-04-22 12:48 | 0.68351 | 127.13252 | 16164 ft | 387 kts | 198° |
| 2026-04-22 12:49 | 0.65809 | 127.12344 | 16651 ft | 389 kts | 198° |
| 2026-04-22 12:49 | 0.63244 | 127.11428 | 17112 ft | 393 kts | 198° |
| 2026-04-22 12:49 | 0.60656 | 127.10504 | 17573 ft | 396 kts | 198° |
| 2026-04-22 12:49 | 0.58038 | 127.09570 | 18021 ft | 400 kts | 198° |
| 2026-04-22 12:50 | 0.55443 | 127.08645 | 18427 ft | 403 kts | 198° |
| 2026-04-22 12:50 | 0.52799 | 127.07700 | 18832 ft | 405 kts | 198° |
| 2026-04-22 12:50 | 0.50139 | 127.06750 | 19240 ft | 407 kts | 198° |
| 2026-04-22 12:50 | 0.47469 | 127.05797 | 19652 ft | 409 kts | 198° |
| 2026-04-22 12:51 | 0.44781 | 127.04837 | 20030 ft | 411 kts | 198° |
| 2026-04-22 12:51 | 0.42077 | 127.03871 | 20408 ft | 414 kts | 198° |
| 2026-04-22 12:51 | 0.39365 | 127.02903 | 20788 ft | 415 kts | 198° |
| 2026-04-22 12:51 | 0.36628 | 127.01928 | 21154 ft | 418 kts | 198° |
| 2026-04-22 12:52 | 0.33880 | 127.00949 | 21515 ft | 420 kts | 198° |
| 2026-04-22 12:52 | 0.31118 | 126.99962 | 21865 ft | 422 kts | 198° |
| 2026-04-22 12:52 | 0.28379 | 126.98983 | 22219 ft | 424 kts | 198° |
| 2026-04-22 12:52 | 0.25592 | 126.97988 | 22551 ft | 426 kts | 198° |
| 2026-04-22 12:53 | 0.22788 | 126.96987 | 22873 ft | 429 kts | 198° |
| 2026-04-22 12:53 | 0.19972 | 126.95981 | 23190 ft | 431 kts | 198° |
| 2026-04-22 12:53 | 0.17138 | 126.94974 | 23506 ft | 433 kts | 198° |
| 2026-04-22 12:53 | 0.14290 | 126.93959 | 23793 ft | 435 kts | 198° |
| 2026-04-22 12:54 | 0.11437 | 126.92938 | 24069 ft | 436 kts | 198° |
| 2026-04-22 12:54 | 0.08579 | 126.91916 | 24331 ft | 437 kts | 198° |
| 2026-04-22 12:54 | 0.05702 | 126.90888 | 24587 ft | 439 kts | 198° |
| 2026-04-22 12:54 | 0.02819 | 126.89859 | 24839 ft | 441 kts | 198° |
| 2026-04-22 12:55 | -0.00033 | 126.88840 | 25097 ft | 442 kts | 198° |
| 2026-04-22 12:55 | -0.02939 | 126.87803 | 25352 ft | 444 kts | 198° |
| 2026-04-22 12:55 | -0.05851 | 126.86763 | 25602 ft | 445 kts | 198° |
| 2026-04-22 12:55 | -0.08772 | 126.85723 | 25840 ft | 447 kts | 198° |
| 2026-04-22 12:56 | -0.11709 | 126.84675 | 26089 ft | 448 kts | 198° |
| 2026-04-22 12:56 | -0.14647 | 126.83626 | 26404 ft | 448 kts | 198° |
| 2026-04-22 12:56 | -0.17582 | 126.82577 | 26802 ft | 445 kts | 198° |
| 2026-04-22 12:56 | -0.20500 | 126.81534 | 27186 ft | 444 kts | 198° |
| 2026-04-22 12:57 | -0.23411 | 126.80496 | 27537 ft | 444 kts | 198° |
| 2026-04-22 12:57 | -0.26322 | 126.79456 | 27909 ft | 443 kts | 198° |
| 2026-04-22 12:57 | -0.29223 | 126.78422 | 28297 ft | 442 kts | 198° |
| 2026-04-22 12:57 | -0.32120 | 126.77389 | 28628 ft | 442 kts | 198° |
| 2026-04-22 12:58 | -0.35032 | 126.76348 | 28876 ft | 445 kts | 198° |
| 2026-04-22 12:58 | -0.37921 | 126.75317 | 29139 ft | 446 kts | 198° |
| 2026-04-22 12:58 | -0.40827 | 126.74281 | 29439 ft | 447 kts | 198° |
| 2026-04-22 12:58 | -0.43792 | 126.73223 | 29751 ft | 448 kts | 198° |
| 2026-04-22 12:59 | -0.46736 | 126.72173 | 29997 ft | 450 kts | 198° |
| 2026-04-22 12:59 | -0.49690 | 126.71120 | 30208 ft | 452 kts | 198° |
| 2026-04-22 12:59 | -0.52658 | 126.70060 | 30449 ft | 453 kts | 198° |
| 2026-04-22 12:59 | -0.55632 | 126.68998 | 30697 ft | 454 kts | 198° |
| 2026-04-22 13:00 | -0.58609 | 126.67935 | 30943 ft | 455 kts | 198° |
| 2026-04-22 13:00 | -0.61599 | 126.66868 | 31171 ft | 456 kts | 198° |
| 2026-04-22 13:00 | -0.64592 | 126.65800 | 31394 ft | 457 kts | 198° |
| 2026-04-22 13:00 | -0.67596 | 126.64727 | 31626 ft | 458 kts | 198° |
| 2026-04-22 13:01 | -0.70605 | 126.63653 | 31844 ft | 460 kts | 198° |
| 2026-04-22 13:01 | -0.73628 | 126.62575 | 32068 ft | 461 kts | 198° |
| 2026-04-22 13:01 | -0.76652 | 126.61498 | 32294 ft | 462 kts | 198° |
| 2026-04-22 13:01 | -0.79680 | 126.60420 | 32506 ft | 463 kts | 198° |
| 2026-04-22 13:02 | -0.82716 | 126.59335 | 32712 ft | 463 kts | 198° |
| 2026-04-22 13:02 | -0.85668 | 126.58012 | 32826 ft | 469 kts | 213° |
| 2026-04-22 13:02 | -0.88058 | 126.55847 | 32982 ft | 473 kts | 231° |
| 2026-04-22 13:02 | -0.89749 | 126.53028 | 33216 ft | 475 kts | 246° |
| 2026-04-22 13:03 | -0.90677 | 126.49853 | 33397 ft | 478 kts | 263° |
| 2026-04-22 13:03 | -0.90803 | 126.46526 | 33584 ft | 480 kts | 270° |
| 2026-04-22 13:03 | -0.90758 | 126.43183 | 33759 ft | 482 kts | 271° |
| 2026-04-22 13:03 | -0.90680 | 126.39831 | 33917 ft | 483 kts | 271° |
| 2026-04-22 13:04 | -0.90606 | 126.36469 | 34075 ft | 485 kts | 271° |
| 2026-04-22 13:04 | -0.90549 | 126.33087 | 34250 ft | 485 kts | 270° |
| 2026-04-22 13:04 | -0.90512 | 126.29723 | 34496 ft | 483 kts | 270° |
| 2026-04-22 13:04 | -0.90487 | 126.26381 | 34828 ft | 480 kts | 270° |
| 2026-04-22 13:05 | -0.90470 | 126.23051 | 35055 ft | 479 kts | 270° |
| 2026-04-22 13:05 | -0.90456 | 126.19711 | 35182 ft | 482 kts | 270° |
| 2026-04-22 13:05 | -0.90441 | 126.16354 | 35309 ft | 483 kts | 270° |
| 2026-04-22 13:05 | -0.90426 | 126.13036 | 35453 ft | 484 kts | 270° |
| 2026-04-22 13:06 | -0.90410 | 126.09677 | 35661 ft | 482 kts | 270° |
| 2026-04-22 13:06 | -0.90395 | 126.06352 | 35898 ft | 477 kts | 270° |
| 2026-04-22 13:06 | -0.90379 | 126.03041 | 35875 ft | 474 kts | 270° |
| 2026-04-22 13:07 | -0.90344 | 125.96494 | 35888 ft | 469 kts | 270° |
| 2026-04-22 13:07 | -0.90310 | 125.89980 | 35888 ft | 467 kts | 270° |
| 2026-04-22 13:08 | -0.90278 | 125.83491 | 35889 ft | 466 kts | 270° |
| 2026-04-22 13:08 | -0.90242 | 125.77009 | 35889 ft | 466 kts | 270° |
| 2026-04-22 13:09 | -0.90651 | 125.70620 | 35863 ft | 464 kts | 249° |
| 2026-04-22 13:09 | -0.93224 | 125.64725 | 35886 ft | 465 kts | 245° |
| 2026-04-22 13:10 | -0.95760 | 125.58744 | 35893 ft | 468 kts | 248° |
| 2026-04-22 13:10 | -0.98130 | 125.52665 | 35889 ft | 471 kts | 249° |
| 2026-04-22 13:11 | -1.00436 | 125.46511 | 35891 ft | 473 kts | 249° |
| 2026-04-22 13:11 | -1.02740 | 125.40332 | 35888 ft | 474 kts | 249° |
| 2026-04-22 13:12 | -1.05033 | 125.34201 | 35892 ft | 474 kts | 249° |
| 2026-04-22 13:12 | -1.07343 | 125.28037 | 35884 ft | 473 kts | 249° |
| 2026-04-22 13:13 | -1.09644 | 125.21894 | 35880 ft | 471 kts | 249° |
| 2026-04-22 13:13 | -1.11937 | 125.15781 | 35884 ft | 469 kts | 249° |
| 2026-04-22 13:14 | -1.14218 | 125.09691 | 35888 ft | 467 kts | 249° |
| 2026-04-22 13:14 | -1.16499 | 125.03615 | 35889 ft | 467 kts | 249° |
| 2026-04-22 13:15 | -1.18774 | 124.97543 | 35888 ft | 466 kts | 249° |
| 2026-04-22 13:15 | -1.21050 | 124.91468 | 35892 ft | 467 kts | 249° |
| 2026-04-22 13:16 | -1.23318 | 124.85423 | 35896 ft | 468 kts | 249° |
| 2026-04-22 13:16 | -1.25607 | 124.79329 | 35899 ft | 469 kts | 249° |
| 2026-04-22 13:17 | -1.27899 | 124.73216 | 35901 ft | 471 kts | 249° |
| 2026-04-22 13:17 | -1.30195 | 124.67082 | 35894 ft | 472 kts | 249° |
| 2026-04-22 13:18 | -1.32500 | 124.60936 | 35895 ft | 472 kts | 249° |
| 2026-04-22 13:18 | -1.34801 | 124.54790 | 35895 ft | 472 kts | 249° |
| 2026-04-22 13:19 | -1.37103 | 124.48640 | 35895 ft | 472 kts | 249° |
| 2026-04-22 13:19 | -1.39400 | 124.42498 | 35898 ft | 472 kts | 249° |
| 2026-04-22 13:20 | -1.41694 | 124.36369 | 35893 ft | 470 kts | 249° |
| 2026-04-22 13:20 | -1.43990 | 124.30244 | 35895 ft | 470 kts | 249° |
| 2026-04-22 13:21 | -1.46271 | 124.24156 | 35899 ft | 470 kts | 249° |
| 2026-04-22 13:21 | -1.48561 | 124.18044 | 35898 ft | 469 kts | 249° |
| 2026-04-22 13:22 | -1.50855 | 124.11934 | 35895 ft | 470 kts | 249° |
| 2026-04-22 13:22 | -1.53143 | 124.05815 | 35896 ft | 469 kts | 249° |
| 2026-04-22 13:23 | -1.55431 | 123.99702 | 35895 ft | 469 kts | 249° |
| 2026-04-22 13:23 | -1.57701 | 123.93630 | 35904 ft | 469 kts | 249° |
| 2026-04-22 13:24 | -1.59989 | 123.87520 | 35893 ft | 469 kts | 249° |
| 2026-04-22 13:24 | -1.62279 | 123.81406 | 35905 ft | 469 kts | 249° |
| 2026-04-22 13:25 | -1.64565 | 123.75294 | 35899 ft | 469 kts | 249° |
| 2026-04-22 13:25 | -1.66848 | 123.69192 | 35899 ft | 469 kts | 249° |
| 2026-04-22 13:26 | -1.69132 | 123.63091 | 35906 ft | 469 kts | 249° |
| 2026-04-22 13:26 | -1.71417 | 123.56983 | 35903 ft | 469 kts | 249° |
| 2026-04-22 13:27 | -1.73705 | 123.50866 | 35901 ft | 469 kts | 249° |
| 2026-04-22 13:27 | -1.75991 | 123.44759 | 35897 ft | 468 kts | 249° |
| 2026-04-22 13:28 | -1.78277 | 123.38652 | 35901 ft | 469 kts | 249° |
| 2026-04-22 13:28 | -1.80559 | 123.32547 | 35894 ft | 469 kts | 249° |
| 2026-04-22 13:29 | -1.82824 | 123.26438 | 35906 ft | 469 kts | 249° |
| 2026-04-22 13:29 | -1.85083 | 123.20326 | 35909 ft | 469 kts | 249° |
| 2026-04-22 13:30 | -1.87333 | 123.14246 | 35901 ft | 469 kts | 249° |
| 2026-04-22 13:30 | -1.89599 | 123.08134 | 35903 ft | 469 kts | 249° |
| 2026-04-22 13:31 | -1.91864 | 123.02021 | 35900 ft | 469 kts | 249° |
| 2026-04-22 13:31 | -1.93753 | 122.96931 | 35905 ft | 469 kts | 249° |
| 2026-04-22 13:32 | -1.96018 | 122.90820 | 35901 ft | 469 kts | 249° |
| 2026-04-22 13:32 | -1.98285 | 122.84706 | 35907 ft | 468 kts | 249° |
| 2026-04-22 13:33 | -2.00544 | 122.78601 | 35905 ft | 468 kts | 249° |
| 2026-04-22 13:33 | -2.02805 | 122.72498 | 35902 ft | 468 kts | 249° |
| 2026-04-22 13:34 | -2.05072 | 122.66384 | 35902 ft | 468 kts | 249° |
| 2026-04-22 13:34 | -2.07333 | 122.60282 | 35899 ft | 468 kts | 249° |
| 2026-04-22 13:35 | -2.09599 | 122.54170 | 35905 ft | 468 kts | 249° |
| 2026-04-22 13:35 | -2.11858 | 122.48061 | 35902 ft | 468 kts | 249° |
| 2026-04-22 13:36 | -2.14107 | 122.41985 | 35905 ft | 468 kts | 249° |
| 2026-04-22 13:36 | -2.16374 | 122.35863 | 35900 ft | 468 kts | 249° |
| 2026-04-22 13:37 | -2.18637 | 122.29759 | 35905 ft | 468 kts | 249° |
| 2026-04-22 13:37 | -2.20900 | 122.23652 | 35905 ft | 469 kts | 249° |
| 2026-04-22 13:38 | -2.23160 | 122.17527 | 35911 ft | 469 kts | 249° |
| 2026-04-22 13:38 | -2.26556 | 122.08357 | 35908 ft | 468 kts | 249° |
| 2026-04-22 13:39 | -2.28802 | 122.02285 | 35915 ft | 468 kts | 249° |
| 2026-04-22 13:39 | -2.31064 | 121.96176 | 35916 ft | 469 kts | 249° |
| 2026-04-22 13:40 | -2.33326 | 121.90059 | 35918 ft | 468 kts | 250° |
| 2026-04-22 13:40 | -2.35587 | 121.83956 | 35932 ft | 468 kts | 249° |
| 2026-04-22 13:41 | -2.37849 | 121.77836 | 35937 ft | 469 kts | 250° |
| 2026-04-22 13:41 | -2.40149 | 121.71729 | 35938 ft | 470 kts | 245° |
| 2026-04-22 13:42 | -2.43712 | 121.66295 | 35939 ft | 468 kts | 227° |
| 2026-04-22 13:42 | -2.48571 | 121.61992 | 35960 ft | 468 kts | 218° |
| 2026-04-22 13:43 | -2.53663 | 121.57921 | 35955 ft | 468 kts | 218° |
| 2026-04-22 13:43 | -2.58741 | 121.53817 | 35950 ft | 470 kts | 218° |
| 2026-04-22 13:44 | -2.63842 | 121.49721 | 35941 ft | 470 kts | 214° |
| 2026-04-22 13:44 | -2.69500 | 121.46470 | 35949 ft | 469 kts | 206° |
| 2026-04-22 13:45 | -2.75338 | 121.43634 | 35953 ft | 468 kts | 205° |
| 2026-04-22 13:45 | -2.81176 | 121.40733 | 35944 ft | 468 kts | 206° |
| 2026-04-22 13:46 | -2.86979 | 121.37751 | 35951 ft | 468 kts | 207° |
| 2026-04-22 13:46 | -2.92763 | 121.34753 | 35947 ft | 467 kts | 207° |
| 2026-04-22 13:47 | -2.98530 | 121.31767 | 35951 ft | 466 kts | 207° |
| 2026-04-22 13:47 | -3.04288 | 121.28789 | 35956 ft | 466 kts | 207° |
| 2026-04-22 13:48 | -3.10048 | 121.25808 | 35967 ft | 466 kts | 207° |
| 2026-04-22 13:48 | -3.15813 | 121.22826 | 35952 ft | 466 kts | 206° |
| 2026-04-22 13:49 | -3.21563 | 121.19820 | 35958 ft | 465 kts | 207° |
| 2026-04-22 13:49 | -3.27299 | 121.16818 | 35957 ft | 465 kts | 207° |
| 2026-04-22 13:50 | -3.33033 | 121.13813 | 35960 ft | 466 kts | 207° |
| 2026-04-22 13:50 | -3.38730 | 121.10712 | 35945 ft | 467 kts | 216° |
| 2026-04-22 13:51 | -3.43700 | 121.06525 | 35936 ft | 468 kts | 222° |
| 2026-04-22 13:51 | -3.48513 | 121.02147 | 35948 ft | 468 kts | 222° |
| 2026-04-22 13:52 | -3.53380 | 120.97808 | 35935 ft | 468 kts | 221° |
| 2026-04-22 13:52 | -3.58240 | 120.93562 | 35906 ft | 457 kts | 220° |
| 2026-04-22 13:53 | -3.62979 | 120.89450 | 35914 ft | 452 kts | 220° |
| 2026-04-22 13:53 | -3.67738 | 120.85313 | 35909 ft | 446 kts | 220° |
| 2026-04-22 13:54 | -3.72367 | 120.81289 | 35904 ft | 441 kts | 221° |
| 2026-04-22 13:54 | -3.77015 | 120.77250 | 35923 ft | 445 kts | 220° |
| 2026-04-22 13:55 | -3.81716 | 120.73161 | 35916 ft | 450 kts | 220° |
| 2026-04-22 13:55 | -3.86467 | 120.69027 | 35759 ft | 456 kts | 221° |
| 2026-04-22 13:56 | -3.88882 | 120.66923 | 35175 ft | 462 kts | 220° |
| 2026-04-22 13:56 | -3.91303 | 120.64814 | 34695 ft | 460 kts | 220° |
| 2026-04-22 13:56 | -3.93709 | 120.62720 | 34191 ft | 458 kts | 220° |
| 2026-04-22 13:56 | -3.96106 | 120.60634 | 33676 ft | 455 kts | 220° |
| 2026-04-22 13:57 | -3.98490 | 120.58555 | 33129 ft | 453 kts | 220° |
| 2026-04-22 13:57 | -4.00863 | 120.56488 | 32585 ft | 451 kts | 220° |
| 2026-04-22 13:57 | -4.03223 | 120.54433 | 32053 ft | 449 kts | 220° |
| 2026-04-22 13:57 | -4.05569 | 120.52391 | 31532 ft | 446 kts | 220° |
| 2026-04-22 13:58 | -4.07910 | 120.50353 | 31017 ft | 444 kts | 220° |
| 2026-04-22 13:58 | -4.10239 | 120.48326 | 30516 ft | 443 kts | 220° |
| 2026-04-22 13:58 | -4.12563 | 120.46303 | 30027 ft | 442 kts | 220° |
| 2026-04-22 13:58 | -4.14885 | 120.44281 | 29455 ft | 441 kts | 220° |
| 2026-04-22 13:59 | -4.17171 | 120.42289 | 28899 ft | 443 kts | 220° |
| 2026-04-22 13:59 | -4.19508 | 120.40255 | 28358 ft | 447 kts | 220° |
| 2026-04-22 13:59 | -4.21867 | 120.38200 | 27817 ft | 452 kts | 220° |
| 2026-04-22 13:59 | -4.24250 | 120.36121 | 27272 ft | 454 kts | 220° |
| 2026-04-22 14:00 | -4.26751 | 120.34215 | 26695 ft | 450 kts | 211° |
| 2026-04-22 14:00 | -4.29485 | 120.32729 | 26161 ft | 445 kts | 202° |
| 2026-04-22 14:00 | -4.32383 | 120.31681 | 25635 ft | 440 kts | 196° |
| 2026-04-22 14:00 | -4.35300 | 120.30767 | 25110 ft | 437 kts | 195° |
| 2026-04-22 14:01 | -4.38203 | 120.29875 | 24597 ft | 435 kts | 195° |
| 2026-04-22 14:01 | -4.41090 | 120.28987 | 24148 ft | 431 kts | 195° |
| 2026-04-22 14:01 | -4.43920 | 120.28105 | 24018 ft | 418 kts | 196° |
| 2026-04-22 14:01 | -4.46660 | 120.27244 | 23928 ft | 411 kts | 196° |
| 2026-04-22 14:02 | -4.49393 | 120.26380 | 23908 ft | 410 kts | 196° |
| 2026-04-22 14:02 | -4.52111 | 120.25517 | 23900 ft | 409 kts | 196° |
| 2026-04-22 14:02 | -4.54784 | 120.24665 | 23900 ft | 409 kts | 196° |
| 2026-04-22 14:02 | -4.57498 | 120.23799 | 23905 ft | 410 kts | 196° |
| 2026-04-22 14:03 | -4.60218 | 120.22932 | 23904 ft | 410 kts | 196° |
| 2026-04-22 14:03 | -4.62942 | 120.22064 | 23902 ft | 411 kts | 196° |
| 2026-04-22 14:03 | -4.65673 | 120.21191 | 23704 ft | 414 kts | 196° |
| 2026-04-22 14:03 | -4.68421 | 120.20315 | 23323 ft | 413 kts | 196° |
| 2026-04-22 14:04 | -4.71154 | 120.19444 | 22858 ft | 411 kts | 196° |
| 2026-04-22 14:04 | -4.73866 | 120.18579 | 22400 ft | 407 kts | 196° |
| 2026-04-22 14:04 | -4.76557 | 120.17721 | 21956 ft | 403 kts | 196° |
| 2026-04-22 14:04 | -4.79194 | 120.16880 | 21510 ft | 394 kts | 196° |
| 2026-04-22 14:05 | -4.81778 | 120.16054 | 21072 ft | 385 kts | 196° |
| 2026-04-22 14:05 | -4.84311 | 120.15246 | 20641 ft | 378 kts | 196° |
| 2026-04-22 14:05 | -4.89227 | 120.13677 | 19790 ft | 365 kts | 196° |
| 2026-04-22 14:06 | -4.91626 | 120.12912 | 19379 ft | 359 kts | 196° |
| 2026-04-22 14:06 | -4.93989 | 120.12160 | 18966 ft | 353 kts | 196° |
| 2026-04-22 14:06 | -4.96317 | 120.11417 | 18554 ft | 348 kts | 196° |
| 2026-04-22 14:06 | -4.98611 | 120.10686 | 18159 ft | 345 kts | 196° |
| 2026-04-22 14:07 | -5.00893 | 120.09958 | 17723 ft | 345 kts | 196° |
| 2026-04-22 14:07 | -5.03185 | 120.09228 | 17281 ft | 345 kts | 196° |
| 2026-04-22 14:07 | -5.05455 | 120.08505 | 16851 ft | 346 kts | 196° |
| 2026-04-22 14:07 | -5.07749 | 120.07773 | 16414 ft | 346 kts | 197° |
| 2026-04-22 14:08 | -5.10076 | 120.07031 | 15980 ft | 347 kts | 197° |
| 2026-04-22 14:08 | -5.12345 | 120.06307 | 15546 ft | 347 kts | 197° |
| 2026-04-22 14:08 | -5.14639 | 120.05572 | 15151 ft | 345 kts | 197° |
| 2026-04-22 14:08 | -5.16785 | 120.04593 | 14738 ft | 339 kts | 218° |
| 2026-04-22 14:09 | -5.18247 | 120.02790 | 14274 ft | 333 kts | 248° |
| 2026-04-22 14:09 | -5.18662 | 120.00551 | 13833 ft | 326 kts | 276° |
| 2026-04-22 14:09 | -5.18382 | 119.98321 | 13353 ft | 321 kts | 274° |
| 2026-04-22 14:09 | -5.18416 | 119.96094 | 12862 ft | 317 kts | 268° |
| 2026-04-22 14:10 | -5.18510 | 119.93898 | 12363 ft | 315 kts | 269° |
| 2026-04-22 14:10 | -5.18598 | 119.91711 | 11878 ft | 312 kts | 269° |
| 2026-04-22 14:10 | -5.18679 | 119.89542 | 11393 ft | 309 kts | 269° |
| 2026-04-22 14:10 | -5.18751 | 119.87412 | 11079 ft | 300 kts | 269° |
| 2026-04-22 14:11 | -5.18820 | 119.85374 | 11090 ft | 289 kts | 269° |
| 2026-04-22 14:11 | -5.18886 | 119.83354 | 11030 ft | 288 kts | 269° |
| 2026-04-22 14:11 | -5.18950 | 119.82023 | 10723 ft | 289 kts | 262° |
| 2026-04-22 14:11 | -5.20027 | 119.79651 | 10325 ft | 279 kts | 230° |
| 2026-04-22 14:12 | -5.20873 | 119.78682 | 10135 ft | 278 kts | 227° |
| 2026-04-22 14:12 | -5.22186 | 119.77255 | 9820 ft | 279 kts | 226° |
| 2026-04-22 14:12 | -5.23922 | 119.75381 | 9380 ft | 275 kts | 226° |
| 2026-04-22 14:12 | -5.25223 | 119.73973 | 9063 ft | 275 kts | 227° |
| 2026-04-22 14:13 | -5.26096 | 119.73022 | 8848 ft | 275 kts | 227° |
| 2026-04-22 14:13 | -5.27399 | 119.71597 | 8534 ft | 277 kts | 227° |
| 2026-04-22 14:13 | -5.28696 | 119.70180 | 8162 ft | 273 kts | 227° |
| 2026-04-22 14:13 | -5.29951 | 119.68805 | 7845 ft | 267 kts | 227° |
| 2026-04-22 14:14 | -5.31194 | 119.67440 | 7578 ft | 263 kts | 227° |
| 2026-04-22 14:14 | -5.32426 | 119.66086 | 7320 ft | 261 kts | 227° |
| 2026-04-22 14:14 | -5.33644 | 119.64744 | 7060 ft | 259 kts | 227° |
| 2026-04-22 14:14 | -5.34857 | 119.63413 | 6809 ft | 258 kts | 227° |
| 2026-04-22 14:15 | -5.36063 | 119.62083 | 6554 ft | 257 kts | 227° |
| 2026-04-22 14:15 | -5.37198 | 119.60713 | 6307 ft | 253 kts | 241° |
| 2026-04-22 14:15 | -5.37628 | 119.59059 | 6061 ft | 241 kts | 274° |
| 2026-04-22 14:15 | -5.37293 | 119.57469 | 5805 ft | 228 kts | 293° |
| 2026-04-22 14:16 | -5.36586 | 119.56101 | 5552 ft | 220 kts | 302° |
| 2026-04-22 14:16 | -5.35835 | 119.54782 | 5306 ft | 217 kts | 300° |
| 2026-04-22 14:16 | -5.35102 | 119.53465 | 5065 ft | 214 kts | 300° |
| 2026-04-22 14:16 | -5.34389 | 119.52181 | 4839 ft | 206 kts | 299° |
| 2026-04-22 14:17 | -5.33719 | 119.50945 | 4599 ft | 197 kts | 299° |
| 2026-04-22 14:17 | -5.33067 | 119.49749 | 4337 ft | 195 kts | 300° |
| 2026-04-22 14:17 | -5.32407 | 119.48548 | 4102 ft | 197 kts | 299° |
| 2026-04-22 14:17 | -5.31748 | 119.47345 | 4008 ft | 197 kts | 299° |
| 2026-04-22 14:18 | -5.31093 | 119.46143 | 3974 ft | 196 kts | 299° |
| 2026-04-22 14:18 | -5.30433 | 119.44941 | 3983 ft | 195 kts | 298° |
| 2026-04-22 14:18 | -5.29641 | 119.43856 | 3944 ft | 194 kts | 328° |
| 2026-04-22 14:18 | -5.28368 | 119.43579 | 3954 ft | 193 kts | 17° |
| 2026-04-22 14:19 | -5.27137 | 119.44143 | 3850 ft | 201 kts | 27° |
| 2026-04-22 14:19 | -5.25912 | 119.44766 | 3616 ft | 196 kts | 28° |
| 2026-04-22 14:19 | -5.24739 | 119.45412 | 3411 ft | 186 kts | 36° |
| 2026-04-22 14:19 | -5.23643 | 119.46135 | 3173 ft | 188 kts | 31° |
| 2026-04-22 14:20 | -5.21316 | 119.47376 | 2684 ft | 198 kts | 25° |
| 2026-04-22 14:20 | -5.20117 | 119.48056 | 2374 ft | 194 kts | 30° |
| 2026-04-22 14:20 | -5.18925 | 119.48671 | 2104 ft | 189 kts | 33° |
| 2026-04-22 14:21 | -5.16829 | 119.50124 | 1512 ft | 185 kts | 33° |
| 2026-04-22 14:21 | -5.15753 | 119.50715 | 1373 ft | 172 kts | 26° |
| 2026-04-22 14:22 | -5.13776 | 119.51795 | 1020 ft | 156 kts | 31° |
| 2026-04-22 14:22 | -5.12845 | 119.52342 | 847 ft | 154 kts | 30° |
| 2026-04-22 14:22 | -5.10973 | 119.53405 | 477 ft | 148 kts | 32° |
| 2026-04-22 14:23 | -5.10084 | 119.53914 | 270 ft | 146 kts | 31° |
| 2026-04-22 14:23 | -5.09221 | 119.54409 | 86 ft | 140 kts | 29° |
| 2026-04-22 14:23 | -5.08512 | 119.54818 | 40 ft | 71 kts | 30° |
| 2026-04-22 14:23 | -5.08103 | 119.55055 | 39 ft | 63 kts | 30° |
| 2026-04-22 14:24 | -5.07816 | 119.55221 | 41 ft | 25 kts | 31° |
| 2026-04-22 14:24 | -5.07692 | 119.55208 | 40 ft | 17 kts | 302° |
| 2026-04-22 14:24 | -5.07674 | 119.55178 | 40 ft | 0 kts | 300° |
| 2026-04-22 14:26 | -5.07663 | 119.55159 | 40 ft | 10 kts | 300° |
| 2026-04-22 14:26 | -5.07610 | 119.55065 | 39 ft | 18 kts | 300° |
| 2026-04-22 14:26 | -5.07581 | 119.54969 | 40 ft | 14 kts | 253° |
| 2026-04-22 14:26 | -5.07633 | 119.54893 | 40 ft | 13 kts | 211° |
| 2026-04-22 14:27 | -5.07687 | 119.54857 | 40 ft | 4 kts | 244° |
| 2026-04-22 14:27 | -5.07677 | 119.54829 | 40 ft | 5 kts | 296° |
| 2026-04-22 14:27 | -5.07662 | 119.54803 | 40 ft | 3 kts | 300° |
| 2026-04-22 14:27 | -5.07659 | 119.54798 | 40 ft | 1 kts | 300° |
| 2026-04-22 14:28 | -5.07659 | 119.54797 | 40 ft | 0 kts | 300° |